createdAt,value
2022-08-12T03:42:51.781Z,100546.84
2022-08-12T03:46:17.947Z,100554.63
2022-08-12T03:49:39.371Z,100554.00
2022-08-12T03:53:00.789Z,100554.81
2022-08-12T03:56:22.308Z,100556.50
2022-08-12T03:59:44.302Z,100560.50
2022-08-12T04:02:55.661Z,100559.69
2022-08-12T04:05:58.551Z,100564.69
2022-08-12T04:09:01.231Z,100572.41
2022-08-12T04:12:26.085Z,100566.72
2022-08-12T04:15:31.560Z,100574.06
2022-08-12T04:18:35.455Z,100575.72
2022-08-12T04:21:42.209Z,100568.63
2022-08-12T04:25:02.930Z,100568.41
2022-08-12T04:28:11.344Z,100565.66
2022-08-12T04:31:16.773Z,100565.25
2022-08-12T04:34:19.621Z,100567.13
2022-08-12T04:37:23.317Z,100575.09
2022-08-12T04:40:30.124Z,100575.22
2022-08-12T04:43:59.583Z,100579.59
2022-08-12T04:46:56.003Z,100583.56
2022-08-12T04:49:59.365Z,100589.53
2022-08-12T04:53:02.644Z,100595.78
2022-08-12T04:56:06.005Z,100599.91
2022-08-12T04:59:08.675Z,100596.22
2022-08-12T05:02:16.704Z,100595.50
2022-08-12T05:05:24.072Z,100608.19
2022-08-12T05:08:27.157Z,100603.44
2022-08-12T05:11:29.771Z,100601.50
2022-08-12T05:14:37.094Z,100609.91
2022-08-12T05:17:44.179Z,100605.88
2022-08-12T05:20:48.403Z,100609.06
2022-08-12T05:23:51.001Z,100608.31
2022-08-12T05:26:54.571Z,100612.03
2022-08-12T05:30:05.248Z,100609.75
2022-08-12T05:33:13.187Z,100612.94
2022-08-12T05:36:16.555Z,100602.28
2022-08-12T05:39:19.534Z,100606.19
2022-08-12T05:42:31.063Z,100602.91
2022-08-12T05:45:40.415Z,100608.66
2022-08-12T05:48:49.374Z,100607.47
2022-08-12T05:51:52.481Z,100606.09
2022-08-12T05:54:57.896Z,100605.75
2022-08-12T05:58:03.047Z,100603.91
2022-08-12T06:02:08.925Z,100611.00
2022-08-12T06:04:29.545Z,100612.19
2022-08-12T06:07:37.329Z,100604.62
2022-08-12T06:10:57.226Z,100608.78
2022-08-12T06:13:59.861Z,100600.97
2022-08-12T06:17:04.787Z,100599.75
2022-08-12T06:20:27.181Z,100599.72
2022-08-12T06:23:33.154Z,100594.38
2022-08-12T06:26:35.815Z,100596.25
2022-08-12T06:30:09.072Z,100598.06
2022-08-12T06:33:24.563Z,100593.19
2022-08-12T06:36:30.046Z,100597.28
2022-08-12T06:39:36.298Z,100595.03
2022-08-12T06:42:51.520Z,100591.94
2022-08-12T06:45:54.673Z,100586.97
2022-08-12T06:48:59.181Z,100597.22
2022-08-12T06:52:04.443Z,100599.22
2022-08-12T06:55:07.765Z,100603.56
2022-08-12T06:58:11.706Z,100599.03
2022-08-12T07:01:15.171Z,100599.03
2022-08-12T07:07:41.479Z,100591.59
2022-08-12T07:10:59.095Z,100593.94
2022-08-12T07:14:13.262Z,100584.09
2022-08-12T07:17:16.035Z,100593.31
2022-08-12T07:20:50.252Z,100594.50
2022-08-12T07:23:42.972Z,100593.91
2022-08-12T07:26:45.829Z,100592.19
2022-08-12T07:29:59.427Z,100602.31
2022-08-12T07:33:10.439Z,100602.34
2022-08-12T07:36:14.590Z,100599.97
2022-08-12T07:39:17.486Z,100601.69
2022-08-12T07:42:20.010Z,100599.63
2022-08-12T07:45:24.554Z,100600.59
2022-08-12T07:48:27.773Z,100589.19
2022-08-12T07:51:31.515Z,100598.84
2022-08-12T07:54:34.158Z,100590.69
2022-08-12T07:57:59.509Z,100593.19
2022-08-12T08:01:02.546Z,100586.13
2022-08-12T08:04:25.438Z,100589.03
2022-08-12T08:07:30.846Z,100588.97
2022-08-12T08:10:35.008Z,100590.81
2022-08-12T08:13:41.038Z,100589.75
2022-08-12T08:16:44.064Z,100588.66
2022-08-12T08:20:02.622Z,100579.72
2022-08-12T08:23:10.490Z,100576.19
2022-08-12T08:26:15.592Z,100579.00
2022-08-12T08:29:21.487Z,100574.31
2022-08-12T08:32:28.260Z,100570.75
2022-08-12T08:35:46.188Z,100573.84
2022-08-12T08:38:53.309Z,100565.25
2022-08-12T08:42:20.678Z,100571.03
2022-08-12T08:45:23.826Z,100565.81
2022-08-12T08:48:26.997Z,100556.41
2022-08-12T08:51:31.252Z,100558.87
2022-08-12T08:54:34.738Z,100560.81
2022-08-12T08:57:43.787Z,100563.50
2022-08-12T09:00:51.461Z,100561.56
2022-08-12T09:03:54.027Z,100555.59
2022-08-12T09:07:59.416Z,100554.47
2022-08-12T09:14:12.169Z,100543.25
2022-08-12T09:17:20.851Z,100535.91
2022-08-12T09:20:27.486Z,100533.28
2022-08-12T09:23:58.463Z,100531.69
2022-08-12T09:26:54.954Z,100529.25
2022-08-12T09:30:09.781Z,100530.50
2022-08-12T09:33:18.928Z,100526.13
2022-08-12T09:37:01.187Z,100532.31
2022-08-12T09:40:58.040Z,100529.16
2022-08-12T09:43:53.518Z,100521.19
2022-08-12T09:46:58.326Z,100522.84
2022-08-12T09:50:00.856Z,100513.84
2022-08-12T09:53:15.270Z,100506.09
2022-08-12T09:57:00.511Z,100508.63
2022-08-12T10:00:17.454Z,100500.94
2022-08-12T10:03:31.474Z,100499.72
2022-08-12T10:06:36.328Z,100498.97
2022-08-12T10:09:57.149Z,100497.47
2022-08-12T10:13:38.331Z,100495.41
2022-08-12T10:16:46.003Z,100492.56
2022-08-12T10:19:52.370Z,100487.66
2022-08-12T10:23:00.208Z,100484.22
2022-08-12T10:26:37.490Z,100481.31
2022-08-12T10:30:02.814Z,100487.09
2022-08-12T10:33:18.132Z,100481.06
2022-08-12T10:36:36.317Z,100475.88
2022-08-12T10:40:07.072Z,100476.66
2022-08-12T10:43:24.565Z,100473.00
2022-08-12T10:46:30.846Z,100474.97
2022-08-12T10:50:03.659Z,100473.69
2022-08-12T10:53:00.551Z,100477.81
2022-08-12T10:56:03.747Z,100480.06
2022-08-12T10:59:11.092Z,100484.47
2022-08-12T11:04:23.173Z,100489.25
2022-08-12T11:07:06.647Z,100491.78
2022-08-12T11:09:01.575Z,100480.72
2022-08-12T11:12:55.938Z,100483.72
2022-08-12T11:16:03.636Z,100476.41
2022-08-12T11:18:57.145Z,100479.16
2022-08-12T11:22:01.288Z,100478.09
2022-08-12T11:25:10.459Z,100477.06
2022-08-12T11:28:16.199Z,100461.28
2022-08-12T11:31:19.111Z,100463.47
2022-08-12T11:34:52.591Z,100465.41
2022-08-12T11:37:58.727Z,100463.72
2022-08-12T11:41:05.139Z,100464.53
2022-08-12T11:44:36.014Z,100459.59
2022-08-12T11:47:30.602Z,100451.53
2022-08-12T11:50:34.395Z,100450.84
2022-08-12T11:53:58.282Z,100459.97
2022-08-12T11:58:09.539Z,100451.03
2022-08-12T12:03:48.790Z,100454.28
2022-08-12T12:06:53.269Z,100448.84
